Time,TemperatureF,DewpointF,PressureIn,WindDirection,WindDirectionDegrees,WindSpeedMPH,WindSpeedGustMPH,Humidity,HourlyPrecipIn,Conditions,Clouds,dailyrainin,SoftwareType,DateUTC
2013-08-24 00:00:00,65.9,54.6,30.16,SSE,161,12.0,16.0,66,0.00,,,0.00,SSEC-RIG,2013-08-24 05:00:00,
2013-08-24 00:05:00,66.2,55.5,30.16,SSE,151,10.8,-999.0,68,0.00,,,0.00,SSEC-RIG,2013-08-24 05:05:00,
2013-08-24 00:10:00,66.2,55.6,30.16,SSE,152,8.8,-999.0,68,0.00,,,0.00,SSEC-RIG,2013-08-24 05:10:00,
2013-08-24 00:15:00,65.6,54.6,30.17,South,172,9.7,-999.0,67,0.00,,,0.00,SSEC-RIG,2013-08-24 05:15:00,
2013-08-24 00:20:00,65.3,54.4,30.17,South,177,8.5,-999.0,67,0.00,,,0.00,SSEC-RIG,2013-08-24 05:20:00,
2013-08-24 00:25:00,65.4,54.0,30.17,SSE,163,10.6,-999.0,66,0.00,,,0.00,SSEC-RIG,2013-08-24 05:25:00,
2013-08-24 00:30:00,65.6,54.0,30.17,SSE,158,11.9,-999.0,65,0.00,,,0.00,SSEC-RIG,2013-08-24 05:30:00,
2013-08-24 00:35:00,65.2,54.3,30.17,SSE,161,9.7,-999.0,67,0.00,,,0.00,SSEC-RIG,2013-08-24 05:35:00,
2013-08-24 00:40:00,64.9,54.3,30.17,SSE,165,10.5,-999.0,68,0.00,,,0.00,SSEC-RIG,2013-08-24 05:40:00,
2013-08-24 00:45:00,64.8,54.1,30.17,SSE,165,11.6,-999.0,67,0.00,,,0.00,SSEC-RIG,2013-08-24 05:45:00,
2013-08-24 00:50:00,64.7,54.1,30.17,SSE,164,11.7,-999.0,68,0.00,,,0.00,SSEC-RIG,2013-08-24 05:50:00,
2013-08-24 00:55:00,64.6,54.1,30.17,SSE,165,12.0,-999.0,68,0.00,,,0.00,SSEC-RIG,2013-08-24 05:55:00,
2013-08-24 01:00:00,64.5,54.2,30.17,SSE,166,10.7,-999.0,69,0.00,,,0.00,SSEC-RIG,2013-08-24 06:00:00,
2013-08-24 01:05:00,64.4,54.1,30.17,South,172,10.1,-999.0,68,0.00,,,0.00,SSEC-RIG,2013-08-24 06:05:00,
2013-08-24 01:10:00,64.3,54.1,30.17,SSE,165,8.8,-999.0,69,0.00,,,0.00,SSEC-RIG,2013-08-24 06:10:00,
2013-08-24 01:15:00,64.4,53.9,30.17,South,171,9.9,-999.0,68,0.00,,,0.00,SSEC-RIG,2013-08-24 06:15:00,
2013-08-24 01:20:00,64.4,53.9,30.17,South,170,10.3,-999.0,68,0.00,,,0.00,SSEC-RIG,2013-08-24 06:20:00,
2013-08-24 01:25:00,64.3,53.9,30.17,South,172,10.3,-999.0,68,0.00,,,0.00,SSEC-RIG,2013-08-24 06:25:00,
2013-08-24 01:30:00,64.1,53.9,30.17,South,169,11.3,-999.0,68,0.00,,,0.00,SSEC-RIG,2013-08-24 06:30:00,
2013-08-24 01:35:00,64.0,53.9,30.17,South,172,11.2,-999.0,69,0.00,,,0.00,SSEC-RIG,2013-08-24 06:35:00,
2013-08-24 01:40:00,63.9,53.8,30.17,South,170,11.3,-999.0,69,0.00,,,0.00,SSEC-RIG,2013-08-24 06:40:00,
2013-08-24 01:45:00,63.8,53.7,30.17,South,170,10.4,-999.0,69,0.00,,,0.00,SSEC-RIG,2013-08-24 06:45:00,
2013-08-24 01:50:00,63.7,53.6,30.17,South,172,9.7,-999.0,69,0.00,,,0.00,SSEC-RIG,2013-08-24 06:50:00,
2013-08-24 01:55:00,63.6,53.5,30.17,South,176,8.9,-999.0,69,0.00,,,0.00,SSEC-RIG,2013-08-24 06:55:00,
2013-08-24 02:00:00,63.7,53.3,30.17,South,175,9.3,-999.0,68,0.00,,,0.00,SSEC-RIG,2013-08-24 07:00:00,
2013-08-24 02:10:00,63.9,53.1,30.17,South,174,10.0,-999.0,67,0.00,,,0.00,SSEC-RIG,2013-08-24 07:10:00,
2013-08-24 02:15:00,63.8,53.0,30.17,South,175,9.2,-999.0,67,0.00,,,0.00,SSEC-RIG,2013-08-24 07:15:00,
2013-08-24 02:20:00,63.7,53.0,30.17,South,172,8.8,-999.0,67,0.00,,,0.00,SSEC-RIG,2013-08-24 07:20:00,
2013-08-24 02:25:00,63.7,52.8,30.17,South,171,9.0,-999.0,67,0.00,,,0.00,SSEC-RIG,2013-08-24 07:25:00,
2013-08-24 02:30:00,63.8,52.7,30.17,South,171,9.7,-999.0,66,0.00,,,0.00,SSEC-RIG,2013-08-24 07:30:00,
2013-08-24 02:35:00,63.9,52.7,30.17,South,170,10.1,-999.0,66,0.00,,,0.00,SSEC-RIG,2013-08-24 07:35:00,
2013-08-24 02:40:00,63.7,52.8,30.17,South,170,10.2,-999.0,67,0.00,,,0.00,SSEC-RIG,2013-08-24 07:40:00,
2013-08-24 02:45:00,63.7,52.8,30.18,South,170,10.6,-999.0,67,0.00,,,0.00,SSEC-RIG,2013-08-24 07:45:00,
2013-08-24 02:50:00,63.7,52.6,30.18,South,173,10.7,-999.0,66,0.00,,,0.00,SSEC-RIG,2013-08-24 07:50:00,
2013-08-24 02:55:00,63.6,52.5,30.18,South,175,11.4,-999.0,66,0.00,,,0.00,SSEC-RIG,2013-08-24 07:55:00,
2013-08-24 03:00:00,63.4,52.5,30.18,South,174,11.0,-999.0,67,0.00,,,0.00,SSEC-RIG,2013-08-24 08:00:00,
2013-08-24 03:05:00,63.2,52.6,30.18,South,174,10.9,-999.0,67,0.00,,,0.00,SSEC-RIG,2013-08-24 08:05:00,
2013-08-24 03:10:00,62.9,52.7,30.18,South,175,10.5,-999.0,69,0.00,,,0.00,SSEC-RIG,2013-08-24 08:10:00,
2013-08-24 03:15:00,62.8,52.7,30.18,South,173,11.0,-999.0,69,0.00,,,0.00,SSEC-RIG,2013-08-24 08:15:00,
2013-08-24 03:20:00,62.7,52.6,30.18,South,175,11.0,-999.0,69,0.00,,,0.00,SSEC-RIG,2013-08-24 08:20:00,
2013-08-24 03:25:00,62.6,52.7,30.18,South,173,11.1,-999.0,69,0.00,,,0.00,SSEC-RIG,2013-08-24 08:25:00,
2013-08-24 03:30:00,62.5,52.8,30.18,South,169,10.9,-999.0,69,0.00,,,0.00,SSEC-RIG,2013-08-24 08:30:00,
2013-08-24 03:35:00,62.4,52.8,30.19,South,173,9.9,-999.0,70,0.00,,,0.00,SSEC-RIG,2013-08-24 08:35:00,
2013-08-24 03:40:00,62.3,52.9,30.19,South,177,9.6,-999.0,70,0.00,,,0.00,SSEC-RIG,2013-08-24 08:40:00,
2013-08-24 03:45:00,62.3,52.7,30.19,South,169,9.8,-999.0,70,0.00,,,0.00,SSEC-RIG,2013-08-24 08:45:00,
2013-08-24 03:50:00,62.4,52.6,30.19,South,169,9.9,-999.0,69,0.00,,,0.00,SSEC-RIG,2013-08-24 08:50:00,
2013-08-24 03:55:00,62.4,52.6,30.19,SSE,168,9.1,-999.0,69,0.00,,,0.00,SSEC-RIG,2013-08-24 08:55:00,
2013-08-24 04:00:00,62.4,52.6,30.20,SSE,167,9.1,-999.0,69,0.00,,,0.00,SSEC-RIG,2013-08-24 09:00:00,
2013-08-24 04:05:00,62.3,52.6,30.20,SSE,168,9.6,-999.0,70,0.00,,,0.00,SSEC-RIG,2013-08-24 09:05:00,
2013-08-24 04:10:00,62.3,52.6,30.20,South,170,9.7,-999.0,69,0.00,,,0.00,SSEC-RIG,2013-08-24 09:10:00,
2013-08-24 04:20:00,62.5,52.9,30.20,SSE,158,8.9,-999.0,70,0.00,,,0.00,SSEC-RIG,2013-08-24 09:20:00,
2013-08-24 04:25:00,62.9,53.9,30.20,SSE,151,8.0,-999.0,71,0.00,,,0.00,SSEC-RIG,2013-08-24 09:25:00,
2013-08-24 04:30:00,63.2,55.1,30.21,SSE,151,7.8,-999.0,74,0.00,,,0.00,SSEC-RIG,2013-08-24 09:30:00,
2013-08-24 04:35:00,62.9,53.7,30.21,SSE,153,9.7,-999.0,71,0.00,,,0.00,SSEC-RIG,2013-08-24 09:35:00,
2013-08-24 04:40:00,62.9,53.1,30.21,SSE,157,10.6,-999.0,69,0.00,,,0.00,SSEC-RIG,2013-08-24 09:40:00,
2013-08-24 04:45:00,63.1,53.2,30.21,SSE,155,9.8,-999.0,69,0.00,,,0.00,SSEC-RIG,2013-08-24 09:45:00,
2013-08-24 04:50:00,62.7,52.9,30.21,SSE,160,9.6,-999.0,69,0.00,,,0.00,SSEC-RIG,2013-08-24 09:50:00,
2013-08-24 04:55:00,62.3,52.9,30.21,SSE,162,10.3,-999.0,70,0.00,,,0.00,SSEC-RIG,2013-08-24 09:55:00,
2013-08-24 05:00:00,62.2,52.7,30.21,SSE,164,9.7,-999.0,70,0.00,,,0.00,SSEC-RIG,2013-08-24 10:00:00,
2013-08-24 05:05:00,61.8,52.7,30.21,SSE,167,9.9,-999.0,71,0.00,,,0.00,SSEC-RIG,2013-08-24 10:05:00,
2013-08-24 05:10:00,61.9,52.5,30.21,SSE,165,9.5,-999.0,70,0.00,,,0.00,SSEC-RIG,2013-08-24 10:10:00,
2013-08-24 05:15:00,61.7,52.5,30.21,South,169,9.3,-999.0,71,0.00,,,0.00,SSEC-RIG,2013-08-24 10:15:00,
2013-08-24 05:20:00,61.7,52.4,30.21,SSE,166,9.1,-999.0,71,0.00,,,0.00,SSEC-RIG,2013-08-24 10:20:00,
2013-08-24 05:25:00,61.7,52.6,30.21,SSE,162,8.5,-999.0,71,0.00,,,0.00,SSEC-RIG,2013-08-24 10:25:00,
2013-08-24 05:30:00,61.7,52.5,30.21,SSE,164,8.9,-999.0,71,0.00,,,0.00,SSEC-RIG,2013-08-24 10:30:00,
2013-08-24 05:35:00,61.5,52.7,30.21,SSE,166,8.5,-999.0,72,0.00,,,0.00,SSEC-RIG,2013-08-24 10:35:00,
2013-08-24 05:40:00,61.5,52.7,30.21,SSE,163,8.3,-999.0,72,0.00,,,0.00,SSEC-RIG,2013-08-24 10:40:00,
2013-08-24 05:45:00,61.4,52.8,30.21,SSE,163,8.4,-999.0,72,0.00,,,0.00,SSEC-RIG,2013-08-24 10:45:00,
2013-08-24 05:50:00,61.9,52.9,30.21,SSE,157,9.3,-999.0,71,0.00,,,0.00,SSEC-RIG,2013-08-24 10:50:00,
2013-08-24 05:55:00,62.0,53.4,30.22,SSE,154,9.4,-999.0,72,0.00,,,0.00,SSEC-RIG,2013-08-24 10:55:00,
2013-08-24 06:00:00,61.9,54.2,30.22,SSE,154,9.1,-999.0,75,0.00,,,0.00,SSEC-RIG,2013-08-24 11:00:00,
2013-08-24 06:05:00,61.8,53.9,30.22,SSE,156,9.1,-999.0,74,0.00,,,0.00,SSEC-RIG,2013-08-24 11:05:00,
2013-08-24 06:10:00,61.5,53.1,30.22,SSE,158,10.4,-999.0,73,0.00,,,0.00,SSEC-RIG,2013-08-24 11:10:00,
2013-08-24 06:15:00,61.0,53.2,30.22,SSE,163,10.2,-999.0,74,0.00,,,0.00,SSEC-RIG,2013-08-24 11:15:00,
2013-08-24 06:20:00,60.8,53.2,30.22,SSE,166,9.2,-999.0,75,0.00,,,0.00,SSEC-RIG,2013-08-24 11:20:00,
2013-08-24 06:25:00,60.9,52.9,30.22,SSE,166,9.2,-999.0,74,0.00,,,0.00,SSEC-RIG,2013-08-24 11:25:00,
2013-08-24 06:30:00,61.1,53.1,30.22,SSE,164,9.9,-999.0,74,0.00,,,0.00,SSEC-RIG,2013-08-24 11:30:00,
2013-08-24 06:35:00,61.3,53.4,30.22,SSE,165,10.0,-999.0,74,0.00,,,0.00,SSEC-RIG,2013-08-24 11:35:00,
2013-08-24 06:40:00,61.2,53.6,30.23,SSE,166,9.7,-999.0,75,0.00,,,0.00,SSEC-RIG,2013-08-24 11:40:00,
2013-08-24 06:45:00,61.1,53.9,30.23,SSE,164,10.0,-999.0,76,0.00,,,0.00,SSEC-RIG,2013-08-24 11:45:00,
2013-08-24 06:50:00,61.1,54.3,30.23,SSE,165,10.6,-999.0,77,0.00,,,0.00,SSEC-RIG,2013-08-24 11:50:00,
2013-08-24 06:55:00,61.2,54.7,30.23,SSE,165,10.9,-999.0,78,0.00,,,0.00,SSEC-RIG,2013-08-24 11:55:00,
2013-08-24 07:00:00,61.3,55.0,30.23,SSE,161,9.7,-999.0,79,0.00,,,0.00,SSEC-RIG,2013-08-24 12:00:00,
2013-08-24 07:05:00,61.3,55.3,30.23,SSE,157,9.2,-999.0,79,0.00,,,0.00,SSEC-RIG,2013-08-24 12:05:00,
2013-08-24 07:10:00,61.2,55.1,30.23,SSE,161,8.5,-999.0,79,0.00,,,0.00,SSEC-RIG,2013-08-24 12:10:00,
2013-08-24 07:15:00,61.3,55.2,30.23,SSE,164,9.0,-999.0,79,0.00,,,0.00,SSEC-RIG,2013-08-24 12:15:00,
2013-08-24 07:20:00,61.7,55.4,30.23,SSE,165,9.8,-999.0,79,0.00,,,0.00,SSEC-RIG,2013-08-24 12:20:00,
2013-08-24 07:25:00,62.0,55.9,30.23,SSE,168,11.4,-999.0,79,0.00,,,0.00,SSEC-RIG,2013-08-24 12:25:00,
2013-08-24 07:30:00,62.6,56.2,30.23,SSE,165,12.6,18.0,79,0.00,,,0.00,SSEC-RIG,2013-08-24 12:30:00,
2013-08-24 07:35:00,62.7,56.4,30.23,SSE,165,9.8,-999.0,79,0.00,,,0.00,SSEC-RIG,2013-08-24 12:35:00,
2013-08-24 07:40:00,63.1,56.8,30.23,SSE,163,11.9,-999.0,79,0.00,,,0.00,SSEC-RIG,2013-08-24 12:40:00,
2013-08-24 07:45:00,63.3,56.9,30.23,SSE,164,10.1,16.3,79,0.00,,,0.00,SSEC-RIG,2013-08-24 12:45:00,
2013-08-24 07:50:00,63.3,57.2,30.23,SSE,162,9.3,-999.0,79,0.00,,,0.00,SSEC-RIG,2013-08-24 12:50:00,
2013-08-24 07:55:00,63.6,57.5,30.24,South,169,11.7,-999.0,79,0.00,,,0.00,SSEC-RIG,2013-08-24 12:55:00,
2013-08-24 08:00:00,63.7,57.8,30.24,SSE,165,10.5,16.4,80,0.00,,,0.00,SSEC-RIG,2013-08-24 13:00:00,
2013-08-24 08:05:00,63.9,58.2,30.23,SSE,161,11.0,-999.0,81,0.00,,,0.00,SSEC-RIG,2013-08-24 13:05:00,
2013-08-24 08:10:00,64.2,58.3,30.23,SSE,164,11.0,-999.0,80,0.00,,,0.00,SSEC-RIG,2013-08-24 13:10:00,
2013-08-24 08:15:00,64.4,58.5,30.23,SSE,164,9.3,-999.0,80,0.00,,,0.00,SSEC-RIG,2013-08-24 13:15:00,
2013-08-24 08:20:00,64.7,58.4,30.23,SSE,163,8.7,-999.0,79,0.00,,,0.00,SSEC-RIG,2013-08-24 13:20:00,
2013-08-24 08:25:00,65.0,58.4,30.23,South,171,7.9,-999.0,78,0.00,,,0.00,SSEC-RIG,2013-08-24 13:25:00,
2013-08-24 08:30:00,65.2,58.5,30.23,South,174,8.5,-999.0,78,0.00,,,0.00,SSEC-RIG,2013-08-24 13:30:00,
2013-08-24 08:35:00,65.4,58.6,30.23,South,176,9.3,-999.0,78,0.00,,,0.00,SSEC-RIG,2013-08-24 13:35:00,
2013-08-24 08:40:00,65.7,58.6,30.23,South,178,9.4,-999.0,77,0.00,,,0.00,SSEC-RIG,2013-08-24 13:40:00,
2013-08-24 08:45:00,66.0,58.7,30.23,South,179,10.2,-999.0,77,0.00,,,0.00,SSEC-RIG,2013-08-24 13:45:00,
2013-08-24 08:50:00,66.2,58.7,30.24,SSE,165,8.7,-999.0,76,0.00,,,0.00,SSEC-RIG,2013-08-24 13:50:00,
2013-08-24 08:55:00,66.6,58.6,30.24,SSE,166,9.2,-999.0,75,0.00,,,0.00,SSEC-RIG,2013-08-24 13:55:00,
2013-08-24 09:00:00,66.5,58.3,30.24,South,171,12.4,-999.0,74,0.00,,,0.00,SSEC-RIG,2013-08-24 14:00:00,
2013-08-24 09:05:00,66.6,58.2,30.24,SSE,167,12.2,-999.0,73,0.00,,,0.00,SSEC-RIG,2013-08-24 14:05:00,
2013-08-24 09:10:00,67.1,58.3,30.24,South,182,9.7,-999.0,72,0.00,,,0.00,SSEC-RIG,2013-08-24 14:10:00,
2013-08-24 09:15:00,67.5,58.3,30.24,South,172,9.7,-999.0,72,0.00,,,0.00,SSEC-RIG,2013-08-24 14:15:00,
2013-08-24 09:20:00,67.7,58.4,30.24,South,177,9.8,-999.0,71,0.00,,,0.00,SSEC-RIG,2013-08-24 14:20:00,
2013-08-24 09:25:00,68.2,58.4,30.24,South,171,7.8,-999.0,70,0.00,,,0.00,SSEC-RIG,2013-08-24 14:25:00,
2013-08-24 09:30:00,68.5,58.1,30.24,South,176,8.5,-999.0,68,0.00,,,0.00,SSEC-RIG,2013-08-24 14:30:00,
2013-08-24 09:35:00,68.5,58.2,30.24,South,169,7.9,-999.0,69,0.00,,,0.00,SSEC-RIG,2013-08-24 14:35:00,
2013-08-24 09:40:00,69.0,58.3,30.24,South,174,9.7,-999.0,68,0.00,,,0.00,SSEC-RIG,2013-08-24 14:40:00,
2013-08-24 09:45:00,69.1,58.3,30.24,South,178,7.8,-999.0,68,0.00,,,0.00,SSEC-RIG,2013-08-24 14:45:00,
2013-08-24 09:50:00,69.9,58.7,30.24,South,186,6.0,-999.0,67,0.00,,,0.00,SSEC-RIG,2013-08-24 14:50:00,
2013-08-24 09:55:00,70.3,58.9,30.24,South,187,8.3,-999.0,66,0.00,,,0.00,SSEC-RIG,2013-08-24 14:55:00,
2013-08-24 10:00:00,70.5,58.6,30.24,South,191,7.5,-999.0,65,0.00,,,0.00,SSEC-RIG,2013-08-24 15:00:00,
2013-08-24 10:05:00,71.0,58.4,30.24,South,188,9.4,-999.0,63,0.00,,,0.00,SSEC-RIG,2013-08-24 15:05:00,
2013-08-24 10:10:00,71.1,58.1,30.24,South,190,11.2,-999.0,62,0.00,,,0.00,SSEC-RIG,2013-08-24 15:10:00,
2013-08-24 10:15:00,71.1,58.3,30.24,SSW,192,10.4,-999.0,63,0.00,,,0.00,SSEC-RIG,2013-08-24 15:15:00,
2013-08-24 10:20:00,71.2,58.6,30.24,SSW,200,11.0,-999.0,64,0.00,,,0.00,SSEC-RIG,2013-08-24 15:20:00,
2013-08-24 10:30:00,72.3,59.2,30.23,South,174,9.6,-999.0,63,0.00,,,0.00,SSEC-RIG,2013-08-24 15:30:00,
2013-08-24 10:35:00,72.0,59.3,30.23,South,173,9.7,-999.0,63,0.00,,,0.00,SSEC-RIG,2013-08-24 15:35:00,
2013-08-24 10:40:00,72.1,59.6,30.24,South,179,8.7,-999.0,64,0.00,,,0.00,SSEC-RIG,2013-08-24 15:40:00,
2013-08-24 10:45:00,72.4,59.9,30.24,South,182,7.7,-999.0,64,0.00,,,0.00,SSEC-RIG,2013-08-24 15:45:00,
2013-08-24 10:50:00,72.9,60.3,30.23,South,175,7.6,-999.0,64,0.00,,,0.00,SSEC-RIG,2013-08-24 15:50:00,
2013-08-24 10:55:00,72.7,60.4,30.23,South,187,11.1,-999.0,64,0.00,,,0.00,SSEC-RIG,2013-08-24 15:55:00,
2013-08-24 11:00:00,73.1,60.6,30.23,South,185,8.1,-999.0,64,0.00,,,0.00,SSEC-RIG,2013-08-24 16:00:00,
2013-08-24 11:05:00,73.7,60.6,30.23,South,174,11.0,-999.0,63,0.00,,,0.00,SSEC-RIG,2013-08-24 16:05:00,
2013-08-24 11:10:00,73.4,60.5,30.23,South,180,12.3,-999.0,63,0.00,,,0.00,SSEC-RIG,2013-08-24 16:10:00,
2013-08-24 11:15:00,73.8,60.8,30.23,South,185,10.8,-999.0,63,0.00,,,0.00,SSEC-RIG,2013-08-24 16:15:00,
2013-08-24 11:20:00,74.1,60.7,30.23,South,183,9.0,-999.0,62,0.00,,,0.00,SSEC-RIG,2013-08-24 16:20:00,
2013-08-24 11:25:00,74.3,60.6,30.23,South,183,13.2,-999.0,61,0.00,,,0.00,SSEC-RIG,2013-08-24 16:25:00,
2013-08-24 11:30:00,74.4,60.7,30.23,South,191,11.4,-999.0,61,0.00,,,0.00,SSEC-RIG,2013-08-24 16:30:00,
2013-08-24 11:35:00,75.2,61.2,30.23,South,191,8.3,-999.0,61,0.00,,,0.00,SSEC-RIG,2013-08-24 16:35:00,
2013-08-24 11:40:00,75.1,61.1,30.23,SSW,192,11.6,-999.0,61,0.00,,,0.00,SSEC-RIG,2013-08-24 16:40:00,
2013-08-24 11:50:00,75.7,61.7,30.22,SSW,197,11.9,-999.0,61,0.00,,,0.00,SSEC-RIG,2013-08-24 16:50:00,
2013-08-24 11:55:00,75.9,61.9,30.22,SSW,206,9.0,-999.0,61,0.00,,,0.00,SSEC-RIG,2013-08-24 16:55:00,
2013-08-24 12:00:00,76.6,62.3,30.22,South,188,11.7,16.9,60,0.00,,,0.00,SSEC-RIG,2013-08-24 17:00:00,
2013-08-24 12:05:00,76.0,62.4,30.22,SSW,197,10.8,-999.0,62,0.00,,,0.00,SSEC-RIG,2013-08-24 17:05:00,
2013-08-24 12:10:00,76.4,62.9,30.22,South,185,11.2,-999.0,62,0.00,,,0.00,SSEC-RIG,2013-08-24 17:10:00,
2013-08-24 12:15:00,76.6,63.0,30.22,South,183,12.0,17.4,62,0.00,,,0.00,SSEC-RIG,2013-08-24 17:15:00,
2013-08-24 12:20:00,76.7,63.1,30.22,South,191,11.6,16.3,62,0.00,,,0.00,SSEC-RIG,2013-08-24 17:20:00,
2013-08-24 12:25:00,76.8,63.3,30.22,SSW,207,11.4,-999.0,62,0.00,,,0.00,SSEC-RIG,2013-08-24 17:25:00,
2013-08-24 12:30:00,76.9,62.9,30.21,SSW,211,14.0,17.7,61,0.00,,,0.00,SSEC-RIG,2013-08-24 17:30:00,
2013-08-24 12:35:00,76.8,62.8,30.21,SW,216,14.7,18.8,61,0.00,,,0.00,SSEC-RIG,2013-08-24 17:35:00,
2013-08-24 12:40:00,76.8,62.6,30.21,SSW,212,13.0,-999.0,61,0.00,,,0.00,SSEC-RIG,2013-08-24 17:40:00,
2013-08-24 12:45:00,77.1,62.9,30.21,SSW,209,12.2,-999.0,61,0.00,,,0.00,SSEC-RIG,2013-08-24 17:45:00,
2013-08-24 12:50:00,77.6,63.5,30.21,SW,214,10.6,16.9,61,0.00,,,0.00,SSEC-RIG,2013-08-24 17:50:00,
2013-08-24 12:55:00,77.5,63.6,30.21,SSW,202,9.7,-999.0,62,0.00,,,0.00,SSEC-RIG,2013-08-24 17:55:00,
2013-08-24 13:00:00,77.9,63.9,30.21,SSW,199,10.6,-999.0,61,0.00,,,0.00,SSEC-RIG,2013-08-24 18:00:00,
2013-08-24 13:05:00,78.1,63.6,30.21,SSW,200,9.6,-999.0,60,0.00,,,0.00,SSEC-RIG,2013-08-24 18:05:00,
2013-08-24 13:10:00,78.1,63.4,30.21,SSW,192,14.5,18.4,60,0.00,,,0.00,SSEC-RIG,2013-08-24 18:10:00,
2013-08-24 13:15:00,77.9,63.0,30.21,SSW,199,15.2,18.7,59,0.00,,,0.00,SSEC-RIG,2013-08-24 18:15:00,
2013-08-24 13:20:00,77.9,63.2,30.21,SSW,195,13.9,17.7,60,0.00,,,0.00,SSEC-RIG,2013-08-24 18:20:00,
2013-08-24 13:25:00,78.2,63.8,30.21,South,189,8.7,-999.0,60,0.00,,,0.00,SSEC-RIG,2013-08-24 18:25:00,
2013-08-24 13:30:00,79.1,63.8,30.21,South,190,8.2,-999.0,59,0.00,,,0.00,SSEC-RIG,2013-08-24 18:30:00,
2013-08-24 13:35:00,79.0,64.0,30.21,SSW,200,10.5,16.0,59,0.00,,,0.00,SSEC-RIG,2013-08-24 18:35:00,
2013-08-24 13:40:00,79.0,63.8,30.20,South,180,12.8,19.6,59,0.00,,,0.00,SSEC-RIG,2013-08-24 18:40:00,
2013-08-24 13:45:00,78.8,64.1,30.20,SSW,206,11.1,-999.0,60,0.00,,,0.00,SSEC-RIG,2013-08-24 18:45:00,
2013-08-24 13:50:00,79.3,64.2,30.20,SSW,213,6.0,-999.0,59,0.00,,,0.00,SSEC-RIG,2013-08-24 18:50:00,
2013-08-24 13:55:00,79.8,64.3,30.20,South,181,7.6,-999.0,58,0.00,,,0.00,SSEC-RIG,2013-08-24 18:55:00,
2013-08-24 14:00:00,79.5,63.6,30.20,South,182,8.3,16.4,58,0.00,,,0.00,SSEC-RIG,2013-08-24 19:00:00,
2013-08-24 14:05:00,79.8,63.7,30.20,SSW,195,7.9,-999.0,57,0.00,,,0.00,SSEC-RIG,2013-08-24 19:05:00,
2013-08-24 14:10:00,79.1,63.6,30.20,South,173,13.4,16.5,58,0.00,,,0.00,SSEC-RIG,2013-08-24 19:10:00,
2013-08-24 14:15:00,79.2,63.5,30.20,South,185,11.3,-999.0,58,0.00,,,0.00,SSEC-RIG,2013-08-24 19:15:00,
2013-08-24 14:20:00,79.4,63.4,30.20,South,179,13.3,16.5,57,0.00,,,0.00,SSEC-RIG,2013-08-24 19:20:00,
2013-08-24 14:25:00,79.7,63.7,30.20,South,175,11.6,-999.0,57,0.00,,,0.00,SSEC-RIG,2013-08-24 19:25:00,
2013-08-24 14:30:00,79.7,63.9,30.20,South,185,9.1,-999.0,58,0.00,,,0.00,SSEC-RIG,2013-08-24 19:30:00,
2013-08-24 14:35:00,79.6,63.8,30.20,South,176,10.7,-999.0,58,0.00,,,0.00,SSEC-RIG,2013-08-24 19:35:00,
2013-08-24 14:40:00,79.7,63.8,30.19,South,179,8.8,-999.0,58,0.00,,,0.00,SSEC-RIG,2013-08-24 19:40:00,
2013-08-24 14:45:00,80.0,64.3,30.19,South,182,7.2,-999.0,58,0.00,,,0.00,SSEC-RIG,2013-08-24 19:45:00,
2013-08-24 14:50:00,80.0,64.1,30.19,South,181,9.9,-999.0,57,0.00,,,0.00,SSEC-RIG,2013-08-24 19:50:00,
2013-08-24 14:55:00,79.7,63.8,30.18,South,182,12.3,17.4,58,0.00,,,0.00,SSEC-RIG,2013-08-24 19:55:00,
2013-08-24 15:00:00,80.0,63.8,30.18,South,190,8.8,-999.0,57,0.00,,,0.00,SSEC-RIG,2013-08-24 20:00:00,
2013-08-24 15:05:00,80.6,64.2,30.18,South,184,7.4,-999.0,57,0.00,,,0.00,SSEC-RIG,2013-08-24 20:05:00,
2013-08-24 15:10:00,80.0,63.9,30.18,SSW,194,12.8,-999.0,57,0.00,,,0.00,SSEC-RIG,2013-08-24 20:10:00,
2013-08-24 15:15:00,80.0,64.0,30.18,SSW,202,10.4,-999.0,57,0.00,,,0.00,SSEC-RIG,2013-08-24 20:15:00,
2013-08-24 15:20:00,80.5,64.2,30.17,SSW,196,8.4,-999.0,57,0.00,,,0.00,SSEC-RIG,2013-08-24 20:20:00,
2013-08-24 15:25:00,80.5,64.1,30.17,South,189,10.9,16.6,57,0.00,,,0.00,SSEC-RIG,2013-08-24 20:25:00,
2013-08-24 15:30:00,80.6,64.2,30.17,SSW,193,10.0,-999.0,57,0.00,,,0.00,SSEC-RIG,2013-08-24 20:30:00,
2013-08-24 15:35:00,80.4,63.7,30.17,South,190,13.4,17.1,56,0.00,,,0.00,SSEC-RIG,2013-08-24 20:35:00,
2013-08-24 15:40:00,80.1,63.7,30.17,South,185,13.7,16.3,57,0.00,,,0.00,SSEC-RIG,2013-08-24 20:40:00,
2013-08-24 15:45:00,80.3,63.9,30.17,South,183,13.6,17.4,57,0.00,,,0.00,SSEC-RIG,2013-08-24 20:45:00,
2013-08-24 15:50:00,80.1,63.9,30.16,South,186,13.2,20.4,57,0.00,,,0.00,SSEC-RIG,2013-08-24 20:50:00,
2013-08-24 15:55:00,80.2,63.7,30.17,South,189,13.5,16.8,57,0.00,,,0.00,SSEC-RIG,2013-08-24 20:55:00,
2013-08-24 16:00:00,80.4,64.0,30.16,SSW,207,11.5,17.1,57,0.00,,,0.00,SSEC-RIG,2013-08-24 21:00:00,
2013-08-24 16:05:00,80.1,64.2,30.16,SSW,198,13.8,17.4,58,0.00,,,0.00,SSEC-RIG,2013-08-24 21:05:00,
2013-08-24 16:10:00,80.4,64.5,30.16,SSW,198,13.9,18.7,58,0.00,,,0.00,SSEC-RIG,2013-08-24 21:10:00,
2013-08-24 16:15:00,80.6,64.1,30.16,South,169,12.6,17.5,57,0.00,,,0.00,SSEC-RIG,2013-08-24 21:15:00,
2013-08-24 16:20:00,80.1,64.6,30.16,SSW,195,14.0,18.9,58,0.00,,,0.00,SSEC-RIG,2013-08-24 21:20:00,
2013-08-24 16:25:00,79.9,64.5,30.16,South,187,12.5,17.5,59,0.00,,,0.00,SSEC-RIG,2013-08-24 21:25:00,
2013-08-24 16:30:00,80.1,64.4,30.16,South,189,12.8,17.1,58,0.00,,,0.00,SSEC-RIG,2013-08-24 21:30:00,
2013-08-24 16:35:00,80.5,64.7,30.16,SSW,197,12.8,17.6,58,0.00,,,0.00,SSEC-RIG,2013-08-24 21:35:00,
2013-08-24 16:40:00,80.7,64.9,30.15,South,185,9.3,16.1,58,0.00,,,0.00,SSEC-RIG,2013-08-24 21:40:00,
2013-08-24 16:45:00,80.6,64.6,30.15,South,187,12.5,19.1,58,0.00,,,0.00,SSEC-RIG,2013-08-24 21:45:00,
2013-08-24 16:50:00,80.6,64.6,30.16,South,185,11.6,16.2,58,0.00,,,0.00,SSEC-RIG,2013-08-24 21:50:00,
2013-08-24 17:00:00,80.1,64.2,30.16,SSW,203,15.7,18.0,58,0.00,,,0.00,SSEC-RIG,2013-08-24 22:00:00,
2013-08-24 17:05:00,80.4,64.6,30.15,South,191,11.7,-999.0,58,0.00,,,0.00,SSEC-RIG,2013-08-24 22:05:00,
2013-08-24 17:10:00,80.7,64.8,30.15,SSW,197,9.3,16.6,58,0.00,,,0.00,SSEC-RIG,2013-08-24 22:10:00,
2013-08-24 17:15:00,80.5,64.3,30.15,SSW,192,13.7,18.6,57,0.00,,,0.00,SSEC-RIG,2013-08-24 22:15:00,
2013-08-24 17:20:00,80.5,64.3,30.15,SSW,192,13.4,17.5,57,0.00,,,0.00,SSEC-RIG,2013-08-24 22:20:00,
2013-08-24 17:25:00,80.3,64.3,30.15,SSW,192,14.7,17.9,57,0.00,,,0.00,SSEC-RIG,2013-08-24 22:25:00,
2013-08-24 17:30:00,80.3,64.3,30.15,SSW,192,12.4,16.4,58,0.00,,,0.00,SSEC-RIG,2013-08-24 22:30:00,
2013-08-24 17:35:00,80.4,64.2,30.15,South,187,13.3,18.1,57,0.00,,,0.00,SSEC-RIG,2013-08-24 22:35:00,
2013-08-24 17:40:00,80.7,64.2,30.15,SSW,196,10.2,16.5,56,0.00,,,0.00,SSEC-RIG,2013-08-24 22:40:00,
2013-08-24 17:50:00,80.6,63.7,30.15,South,183,9.5,-999.0,56,0.00,,,0.00,SSEC-RIG,2013-08-24 22:50:00,
2013-08-24 17:55:00,80.8,63.8,30.15,South,178,8.3,-999.0,55,0.00,,,0.00,SSEC-RIG,2013-08-24 22:55:00,
2013-08-24 18:00:00,80.7,63.6,30.15,South,180,11.4,-999.0,55,0.00,,,0.00,SSEC-RIG,2013-08-24 23:00:00,
2013-08-24 18:05:00,80.4,63.4,30.15,South,185,11.5,-999.0,55,0.00,,,0.00,SSEC-RIG,2013-08-24 23:05:00,
2013-08-24 18:10:00,80.5,63.6,30.15,South,184,11.1,16.1,56,0.00,,,0.00,SSEC-RIG,2013-08-24 23:10:00,
2013-08-24 18:15:00,80.4,63.7,30.15,South,191,9.7,-999.0,56,0.00,,,0.00,SSEC-RIG,2013-08-24 23:15:00,
2013-08-24 18:20:00,80.5,64.0,30.15,South,184,8.9,-999.0,57,0.00,,,0.00,SSEC-RIG,2013-08-24 23:20:00,
2013-08-24 18:30:00,80.0,64.1,30.15,South,190,12.4,-999.0,58,0.00,,,0.00,SSEC-RIG,2013-08-24 23:30:00,
2013-08-24 18:35:00,80.0,64.4,30.15,South,187,11.8,-999.0,58,0.00,,,0.00,SSEC-RIG,2013-08-24 23:35:00,
2013-08-24 18:40:00,80.0,64.8,30.15,South,184,7.6,-999.0,59,0.00,,,0.00,SSEC-RIG,2013-08-24 23:40:00,
2013-08-24 18:45:00,79.9,64.9,30.15,South,184,8.8,-999.0,59,0.00,,,0.00,SSEC-RIG,2013-08-24 23:45:00,
2013-08-24 18:50:00,79.8,65.0,30.15,South,183,8.3,-999.0,60,0.00,,,0.00,SSEC-RIG,2013-08-24 23:50:00,
2013-08-24 18:55:00,79.7,65.1,30.15,South,179,9.6,-999.0,60,0.00,,,0.00,SSEC-RIG,2013-08-24 23:55:00,
2013-08-24 19:00:00,79.5,65.2,30.15,South,182,8.6,-999.0,61,0.00,,,0.00,SSEC-RIG,2013-08-25 00:00:00,
2013-08-24 19:05:00,79.4,65.3,30.15,South,176,8.7,-999.0,61,0.00,,,0.00,SSEC-RIG,2013-08-25 00:05:00,
2013-08-24 19:10:00,79.2,65.4,30.15,South,174,9.2,-999.0,62,0.00,,,0.00,SSEC-RIG,2013-08-25 00:10:00,
2013-08-24 19:15:00,79.0,65.5,30.15,South,177,9.9,-999.0,63,0.00,,,0.00,SSEC-RIG,2013-08-25 00:15:00,
2013-08-24 19:20:00,78.8,65.4,30.15,South,173,11.9,-999.0,63,0.00,,,0.00,SSEC-RIG,2013-08-25 00:20:00,
2013-08-24 19:25:00,78.6,65.5,30.15,South,169,10.0,-999.0,63,0.00,,,0.00,SSEC-RIG,2013-08-25 00:25:00,
2013-08-24 19:30:00,78.5,65.6,30.15,South,172,8.9,-999.0,64,0.00,,,0.00,SSEC-RIG,2013-08-25 00:30:00,
2013-08-24 19:35:00,78.3,65.7,30.15,South,174,8.5,-999.0,65,0.00,,,0.00,SSEC-RIG,2013-08-25 00:35:00,
2013-08-24 19:40:00,78.1,65.7,30.15,South,178,9.8,-999.0,65,0.00,,,0.00,SSEC-RIG,2013-08-25 00:40:00,
2013-08-24 19:45:00,77.9,65.8,30.15,South,173,11.7,-999.0,66,0.00,,,0.00,SSEC-RIG,2013-08-25 00:45:00,
2013-08-24 19:50:00,77.7,65.9,30.15,South,176,12.4,-999.0,66,0.00,,,0.00,SSEC-RIG,2013-08-25 00:50:00,
2013-08-24 19:55:00,77.5,66.0,30.15,South,176,10.4,-999.0,67,0.00,,,0.00,SSEC-RIG,2013-08-25 00:55:00,
2013-08-24 20:00:00,77.4,66.0,30.15,South,174,11.9,-999.0,67,0.00,,,0.00,SSEC-RIG,2013-08-25 01:00:00,
2013-08-24 20:05:00,77.2,66.0,30.16,South,176,11.2,-999.0,68,0.00,,,0.00,SSEC-RIG,2013-08-25 01:05:00,
2013-08-24 20:10:00,76.9,66.1,30.16,South,178,10.9,-999.0,68,0.00,,,0.00,SSEC-RIG,2013-08-25 01:10:00,
2013-08-24 20:15:00,76.7,66.1,30.16,South,177,11.5,-999.0,69,0.00,,,0.00,SSEC-RIG,2013-08-25 01:15:00,
2013-08-24 20:20:00,76.6,66.1,30.16,South,179,11.8,-999.0,69,0.00,,,0.00,SSEC-RIG,2013-08-25 01:20:00,
2013-08-24 20:25:00,76.4,66.0,30.15,South,178,12.1,-999.0,69,0.00,,,0.00,SSEC-RIG,2013-08-25 01:25:00,
2013-08-24 20:30:00,76.2,66.0,30.15,South,178,12.8,16.6,70,0.00,,,0.00,SSEC-RIG,2013-08-25 01:30:00,
2013-08-24 20:35:00,76.1,66.0,30.15,South,179,13.1,18.2,70,0.00,,,0.00,SSEC-RIG,2013-08-25 01:35:00,
2013-08-24 20:40:00,76.0,65.9,30.15,South,179,13.2,18.2,70,0.00,,,0.00,SSEC-RIG,2013-08-25 01:40:00,
2013-08-24 20:45:00,75.9,65.9,30.15,South,181,14.4,19.1,70,0.00,,,0.00,SSEC-RIG,2013-08-25 01:45:00,
2013-08-24 20:50:00,75.8,65.9,30.16,South,182,13.8,17.6,71,0.00,,,0.00,SSEC-RIG,2013-08-25 01:50:00,
2013-08-24 20:55:00,75.6,66.0,30.16,South,185,13.3,18.5,71,0.00,,,0.00,SSEC-RIG,2013-08-25 01:55:00,
2013-08-24 21:00:00,75.4,66.0,30.16,South,186,13.7,16.9,72,0.00,,,0.00,SSEC-RIG,2013-08-25 02:00:00,
2013-08-24 21:05:00,75.2,66.0,30.16,South,185,14.7,18.2,72,0.00,,,0.00,SSEC-RIG,2013-08-25 02:05:00,
2013-08-24 21:10:00,75.1,66.1,30.16,South,184,15.4,18.4,73,0.00,,,0.00,SSEC-RIG,2013-08-25 02:10:00,
2013-08-24 21:15:00,75.1,66.1,30.16,South,182,15.5,18.8,73,0.00,,,0.00,SSEC-RIG,2013-08-25 02:15:00,
2013-08-24 21:20:00,75.0,66.1,30.16,South,182,14.6,19.9,73,0.00,,,0.00,SSEC-RIG,2013-08-25 02:20:00,
2013-08-24 21:25:00,75.0,66.1,30.16,South,180,15.3,18.7,73,0.00,,,0.00,SSEC-RIG,2013-08-25 02:25:00,
2013-08-24 21:30:00,75.0,66.0,30.16,South,178,14.5,19.9,73,0.00,,,0.00,SSEC-RIG,2013-08-25 02:30:00,
2013-08-24 21:35:00,74.8,66.0,30.16,South,179,13.9,18.2,73,0.00,,,0.00,SSEC-RIG,2013-08-25 02:35:00,
2013-08-24 21:40:00,74.7,66.1,30.16,South,182,14.1,17.9,74,0.00,,,0.00,SSEC-RIG,2013-08-25 02:40:00,
2013-08-24 21:45:00,74.6,66.1,30.16,South,180,15.3,17.8,74,0.00,,,0.00,SSEC-RIG,2013-08-25 02:45:00,
2013-08-24 21:55:00,74.4,66.1,30.16,South,180,14.0,16.9,75,0.00,,,0.00,SSEC-RIG,2013-08-25 02:55:00,
2013-08-24 22:00:00,74.2,66.2,30.17,South,183,14.1,19.2,75,0.00,,,0.00,SSEC-RIG,2013-08-25 03:00:00,
2013-08-24 22:05:00,74.1,66.2,30.17,South,181,14.0,17.1,75,0.00,,,0.00,SSEC-RIG,2013-08-25 03:05:00,
2013-08-24 22:10:00,74.0,66.2,30.17,South,180,14.0,18.4,76,0.00,,,0.00,SSEC-RIG,2013-08-25 03:10:00,
2013-08-24 22:15:00,74.0,66.2,30.16,South,178,14.0,17.1,76,0.00,,,0.00,SSEC-RIG,2013-08-25 03:15:00,
2013-08-24 22:20:00,73.9,66.2,30.16,South,180,13.7,17.7,76,0.00,,,0.00,SSEC-RIG,2013-08-25 03:20:00,
2013-08-24 22:25:00,73.8,66.2,30.16,South,184,14.9,18.8,76,0.00,,,0.00,SSEC-RIG,2013-08-25 03:25:00,
2013-08-24 22:30:00,73.6,66.3,30.16,South,184,14.8,17.5,77,0.00,,,0.00,SSEC-RIG,2013-08-25 03:30:00,
2013-08-24 22:35:00,73.5,66.2,30.16,South,185,14.8,19.2,77,0.00,,,0.00,SSEC-RIG,2013-08-25 03:35:00,
2013-08-24 22:40:00,73.4,66.2,30.16,South,187,14.8,17.3,77,0.00,,,0.00,SSEC-RIG,2013-08-25 03:40:00,
2013-08-24 22:45:00,73.3,66.2,30.16,South,188,15.1,19.9,78,0.00,,,0.00,SSEC-RIG,2013-08-25 03:45:00,
2013-08-24 22:50:00,73.2,66.2,30.16,South,187,15.3,19.1,78,0.00,,,0.00,SSEC-RIG,2013-08-25 03:50:00,
2013-08-24 22:55:00,73.3,66.2,30.16,South,188,17.0,20.2,78,0.00,,,0.00,SSEC-RIG,2013-08-25 03:55:00,
2013-08-24 23:00:00,73.2,66.2,30.15,South,185,15.6,19.8,78,0.00,,,0.00,SSEC-RIG,2013-08-25 04:00:00,
2013-08-24 23:05:00,73.1,66.2,30.15,South,185,15.3,19.0,78,0.00,,,0.00,SSEC-RIG,2013-08-25 04:05:00,
2013-08-24 23:10:00,73.1,66.2,30.15,South,187,15.5,20.8,78,0.00,,,0.00,SSEC-RIG,2013-08-25 04:10:00,
2013-08-24 23:15:00,72.9,66.2,30.15,South,187,15.2,18.3,79,0.00,,,0.00,SSEC-RIG,2013-08-25 04:15:00,
2013-08-24 23:20:00,72.8,66.2,30.15,South,188,14.9,17.8,79,0.00,,,0.00,SSEC-RIG,2013-08-25 04:20:00,
2013-08-24 23:25:00,72.7,66.2,30.15,South,187,14.3,18.0,79,0.00,,,0.00,SSEC-RIG,2013-08-25 04:25:00,
2013-08-24 23:30:00,72.6,66.2,30.15,South,187,13.4,17.7,79,0.00,,,0.00,SSEC-RIG,2013-08-25 04:30:00,
2013-08-24 23:35:00,72.6,66.2,30.15,South,190,13.9,18.8,80,0.00,,,0.00,SSEC-RIG,2013-08-25 04:35:00,
2013-08-24 23:40:00,72.6,66.2,30.15,South,187,15.2,20.2,79,0.00,,,0.00,SSEC-RIG,2013-08-25 04:40:00,
2013-08-24 23:45:00,72.6,66.2,30.15,South,187,15.3,19.9,79,0.00,,,0.00,SSEC-RIG,2013-08-25 04:45:00,
2013-08-24 23:50:00,72.6,66.1,30.15,South,186,14.6,18.6,79,0.00,,,0.00,SSEC-RIG,2013-08-25 04:50:00,
2013-08-24 23:55:00,72.5,66.1,30.15,South,182,15.2,20.2,79,0.00,,,0.00,SSEC-RIG,2013-08-25 04:55:00,